createdAt,value
2018-05-11T00:02:19.994Z,16.08
2018-05-11T00:04:48.324Z,16.06
2018-05-11T00:07:16.667Z,16.01
2018-05-11T00:09:44.993Z,15.94
2018-05-11T00:12:13.335Z,15.87
2018-05-11T00:14:42.079Z,15.82
2018-05-11T00:17:10.394Z,15.90
2018-05-11T00:19:38.870Z,15.91
2018-05-11T00:22:07.592Z,15.97
2018-05-11T00:24:36.329Z,16.00
2018-05-11T00:27:05.197Z,16.00
2018-05-11T00:29:33.532Z,15.99
2018-05-11T00:32:02.639Z,16.00
2018-05-11T00:34:31.249Z,15.97
2018-05-11T00:37:00.003Z,16.06
2018-05-11T00:39:28.518Z,16.09
2018-05-11T00:41:56.943Z,16.17
2018-05-11T00:44:25.405Z,16.18
2018-05-11T00:46:54.028Z,16.19
2018-05-11T00:49:22.354Z,16.22
2018-05-11T00:51:50.888Z,16.25
2018-05-11T00:54:19.245Z,15.71
2018-05-11T00:56:47.601Z,15.59
2018-05-11T00:59:15.913Z,15.48
2018-05-11T01:01:45.491Z,15.45
2018-05-11T01:04:13.964Z,15.49
2018-05-11T01:06:43.245Z,15.52
2018-05-11T01:09:12.357Z,15.64
2018-05-11T01:11:40.824Z,15.66
2018-05-11T01:14:09.136Z,15.64
2018-05-11T01:16:38.071Z,15.67
2018-05-11T01:19:06.411Z,15.66
2018-05-11T01:21:34.947Z,15.68
2018-05-11T01:24:03.684Z,15.55
2018-05-11T01:26:32.883Z,15.29
2018-05-11T01:29:03.160Z,15.01
2018-05-11T01:31:31.454Z,14.76
2018-05-11T01:33:59.787Z,14.87
2018-05-11T01:36:28.194Z,14.70
2018-05-11T01:38:56.569Z,14.74
2018-05-11T01:41:25.062Z,14.71
2018-05-11T01:43:53.348Z,14.61
2018-05-11T01:46:21.785Z,14.44
2018-05-11T01:48:50.120Z,14.41
2018-05-11T01:51:18.449Z,14.39
2018-05-11T01:53:46.971Z,14.57
2018-05-11T01:56:15.465Z,14.70
2018-05-11T01:58:45.714Z,14.82
2018-05-11T02:01:14.984Z,14.94
2018-05-11T02:03:43.306Z,15.11
2018-05-11T02:06:11.754Z,15.22
2018-05-11T02:08:40.255Z,15.25
2018-05-11T02:11:09.335Z,15.29
2018-05-11T02:13:38.440Z,15.28
2018-05-11T02:16:07.569Z,15.13
2018-05-11T02:18:35.913Z,15.14
2018-05-11T02:21:04.196Z,15.12
2018-05-11T02:23:34.304Z,15.02
2018-05-11T02:26:03.570Z,14.91
2018-05-11T02:28:32.122Z,14.88
2018-05-11T02:31:00.785Z,14.95
2018-05-11T02:33:30.969Z,15.01
2018-05-11T02:35:59.259Z,15.02
2018-05-11T02:38:27.626Z,15.06
2018-05-11T02:40:56.301Z,15.04
2018-05-11T02:43:24.809Z,15.03
2018-05-11T02:45:53.230Z,15.09
2018-05-11T02:48:21.540Z,15.08
2018-05-11T02:50:49.889Z,15.00
2018-05-11T02:53:18.450Z,14.81
2018-05-11T02:55:46.794Z,14.45
2018-05-11T02:58:15.448Z,14.11
2018-05-11T03:00:43.671Z,13.89
2018-05-11T03:03:13.945Z,13.89
2018-05-11T03:05:42.613Z,13.85
2018-05-11T03:08:11.081Z,13.89
2018-05-11T03:10:39.573Z,14.05
2018-05-11T03:13:07.879Z,14.17
2018-05-11T03:15:36.218Z,14.24
2018-05-11T03:18:04.561Z,14.29
2018-05-11T03:20:32.859Z,14.42
2018-05-11T03:23:01.942Z,14.55
2018-05-11T03:25:30.474Z,14.51
2018-05-11T03:27:58.804Z,14.54
2018-05-11T03:30:27.898Z,14.60
2018-05-11T03:32:57.540Z,14.67
2018-05-11T03:35:27.591Z,14.66
2018-05-11T03:37:56.024Z,14.67
2018-05-11T03:40:24.440Z,14.74
2018-05-11T03:42:52.781Z,14.75
2018-05-11T03:45:21.849Z,14.74
2018-05-11T03:47:50.141Z,14.73
2018-05-11T03:50:19.199Z,14.75
2018-05-11T03:52:47.595Z,14.69
2018-05-11T03:55:15.935Z,14.64
2018-05-11T03:57:44.302Z,14.59
2018-05-11T04:00:14.114Z,14.53
2018-05-11T04:03:00.170Z,14.52
2018-05-11T04:08:47.319Z,14.70
2018-05-11T04:11:16.462Z,14.76
2018-05-11T04:13:44.740Z,14.73
2018-05-11T04:16:13.080Z,14.78
2018-05-11T04:18:41.371Z,14.84
2018-05-11T04:21:09.771Z,14.87
2018-05-11T04:23:38.210Z,14.92
2018-05-11T04:26:07.614Z,14.88
2018-05-11T04:28:36.189Z,14.79
2018-05-11T04:31:05.316Z,14.81
2018-05-11T04:33:33.766Z,14.86
2018-05-11T04:36:02.824Z,14.96
2018-05-11T04:38:31.150Z,14.93
2018-05-11T04:40:59.410Z,14.94
2018-05-11T04:43:28.487Z,15.02
2018-05-11T04:45:56.919Z,15.06
2018-05-11T04:48:25.247Z,15.13
2018-05-11T04:50:53.546Z,15.20
2018-05-11T04:53:21.825Z,15.25
2018-05-11T04:55:50.976Z,15.16
2018-05-11T04:58:19.420Z,15.18
2018-05-11T05:00:47.726Z,15.18
2018-05-11T05:03:16.311Z,15.20
2018-05-11T05:05:44.608Z,15.24
2018-05-11T05:08:13.109Z,15.22
2018-05-11T05:10:42.265Z,15.22
2018-05-11T05:13:10.756Z,15.25
2018-05-11T05:15:39.061Z,15.35
2018-05-11T05:18:08.165Z,15.42
2018-05-11T05:20:37.304Z,15.45
2018-05-11T05:23:05.709Z,15.52
2018-05-11T05:25:34.085Z,15.54
2018-05-11T05:28:02.590Z,15.53
2018-05-11T05:30:31.685Z,15.60
2018-05-11T05:33:00.901Z,15.66
2018-05-11T05:35:29.261Z,15.49
2018-05-11T05:37:57.579Z,15.44
2018-05-11T05:40:25.905Z,15.39
2018-05-11T05:42:54.214Z,15.37
2018-05-11T05:45:24.249Z,15.39
2018-05-11T05:47:52.665Z,15.39
2018-05-11T05:50:20.960Z,15.44
2018-05-11T05:52:49.341Z,15.42
2018-05-11T05:55:17.820Z,15.45
2018-05-11T05:57:46.477Z,15.51
2018-05-11T06:00:15.030Z,15.45
2018-05-11T06:02:43.564Z,15.44
2018-05-11T06:05:12.146Z,15.44
2018-05-11T06:07:40.679Z,15.30
2018-05-11T06:10:09.028Z,15.34
2018-05-11T06:12:37.485Z,15.38
2018-05-11T06:15:06.765Z,15.38
2018-05-11T06:17:35.330Z,15.39
2018-05-11T06:20:03.841Z,15.40
2018-05-11T06:22:32.239Z,15.34
2018-05-11T06:25:01.343Z,15.28
2018-05-11T06:27:30.465Z,15.34
2018-05-11T06:29:58.791Z,15.40
2018-05-11T06:32:27.925Z,15.54
2018-05-11T06:34:57.491Z,15.65
2018-05-11T06:37:26.613Z,15.70
2018-05-11T06:39:55.703Z,15.70
2018-05-11T06:42:24.185Z,15.84
2018-05-11T06:44:53.341Z,15.79
2018-05-11T06:47:21.731Z,15.73
2018-05-11T06:49:50.615Z,15.62
2018-05-11T06:52:19.057Z,15.67
2018-05-11T06:54:47.420Z,15.77
2018-05-11T06:57:16.631Z,15.76
2018-05-11T06:59:45.274Z,15.84
2018-05-11T07:02:13.709Z,15.92
2018-05-11T07:04:42.924Z,15.99
2018-05-11T07:07:11.241Z,16.15
2018-05-11T07:09:40.396Z,16.11
2018-05-11T07:12:08.741Z,16.16
2018-05-11T07:14:37.118Z,16.16
2018-05-11T07:17:05.500Z,16.13
2018-05-11T07:19:33.844Z,16.29
2018-05-11T07:22:02.206Z,16.45
2018-05-11T07:24:30.532Z,16.67
2018-05-11T07:26:58.910Z,16.93
2018-05-11T07:29:27.206Z,16.96
2018-05-11T07:31:55.578Z,17.11
2018-05-11T07:34:23.914Z,17.37
2018-05-11T07:36:52.203Z,17.37
2018-05-11T07:39:21.299Z,17.24
2018-05-11T07:41:50.527Z,17.31
2018-05-11T07:44:18.918Z,17.50
2018-05-11T07:46:47.481Z,17.59
2018-05-11T07:49:16.024Z,17.44
2018-05-11T07:51:44.372Z,17.37
2018-05-11T07:54:12.781Z,17.34
2018-05-11T07:56:41.119Z,17.35
2018-05-11T07:59:09.465Z,17.38
2018-05-11T08:01:38.667Z,17.48
2018-05-11T08:04:07.185Z,17.47
2018-05-11T08:06:35.555Z,17.42
2018-05-11T08:09:04.025Z,17.41
2018-05-11T08:11:32.364Z,17.43
2018-05-11T08:14:00.679Z,17.61
2018-05-11T08:16:29.049Z,17.63
2018-05-11T08:18:58.017Z,17.59
2018-05-11T08:21:27.310Z,17.68
2018-05-11T08:23:55.586Z,17.86
2018-05-11T08:26:24.031Z,17.90
2018-05-11T08:28:52.415Z,17.92
2018-05-11T08:31:20.871Z,17.86
2018-05-11T08:33:50.321Z,17.74
2018-05-11T08:36:18.852Z,17.78
2018-05-11T08:38:47.457Z,17.85
2018-05-11T08:41:16.067Z,17.82
2018-05-11T08:43:44.395Z,17.66
2018-05-11T08:46:12.787Z,17.70
2018-05-11T08:48:41.180Z,17.86
2018-05-11T08:51:10.499Z,17.93
2018-05-11T08:53:39.228Z,17.91
2018-05-11T08:56:08.457Z,18.02
2018-05-11T08:58:36.816Z,18.29
2018-05-11T09:01:06.746Z,18.57
2018-05-11T09:03:35.244Z,18.79
2018-05-11T09:06:03.603Z,18.82
2018-05-11T09:08:32.324Z,18.91
2018-05-11T09:11:00.627Z,19.03
2018-05-11T09:13:29.128Z,19.08
2018-05-11T09:15:57.441Z,19.14
2018-05-11T09:18:25.825Z,19.03
2018-05-11T09:20:54.425Z,18.99
2018-05-11T09:23:23.022Z,18.98
2018-05-11T09:25:51.358Z,19.04
2018-05-11T09:28:19.847Z,19.12
2018-05-11T09:30:49.711Z,19.14
2018-05-11T09:33:19.963Z,19.11
2018-05-11T09:35:48.255Z,18.93
2018-05-11T09:38:16.579Z,18.92
2018-05-11T09:40:45.668Z,19.00
2018-05-11T09:43:15.153Z,19.08
2018-05-11T09:45:44.218Z,19.13
2018-05-11T09:48:12.609Z,19.21
2018-05-11T09:50:41.711Z,19.25
2018-05-11T09:53:10.056Z,19.25
2018-05-11T09:55:38.483Z,19.30
2018-05-11T09:58:06.854Z,19.30
2018-05-11T10:00:35.242Z,19.36
2018-05-11T10:03:05.569Z,19.31
2018-05-11T10:05:33.977Z,19.28
2018-05-11T10:08:02.308Z,19.25
2018-05-11T10:10:30.635Z,19.13
2018-05-11T10:12:59.137Z,19.13
2018-05-11T10:15:27.483Z,19.22
2018-05-11T10:17:56.942Z,19.31
2018-05-11T10:20:25.286Z,19.32
2018-05-11T10:22:53.687Z,19.38
2018-05-11T10:25:21.993Z,19.50
2018-05-11T10:27:50.736Z,19.53
2018-05-11T10:30:19.291Z,19.68
2018-05-11T10:32:48.421Z,19.73
2018-05-11T10:35:16.815Z,19.81
2018-05-11T10:37:45.136Z,19.81
2018-05-11T10:40:14.245Z,19.87
2018-05-11T10:42:43.588Z,19.82
2018-05-11T10:45:11.908Z,19.85
2018-05-11T10:47:40.302Z,19.89
2018-05-11T10:50:08.784Z,19.91
2018-05-11T10:52:37.358Z,19.98
2018-05-11T10:55:06.647Z,20.00
2018-05-11T10:57:34.927Z,20.15
2018-05-11T11:00:03.337Z,20.28
2018-05-11T11:02:32.546Z,20.40
2018-05-11T11:05:01.272Z,20.52
2018-05-11T11:07:30.439Z,20.63
2018-05-11T11:09:58.829Z,20.64
2018-05-11T11:12:27.362Z,20.69
2018-05-11T11:14:56.812Z,20.76
2018-05-11T11:17:25.171Z,20.83
2018-05-11T11:19:53.590Z,20.98
2018-05-11T11:22:21.860Z,21.05
2018-05-11T11:24:50.375Z,21.21
2018-05-11T11:27:19.539Z,21.22
2018-05-11T11:29:47.937Z,21.25
2018-05-11T11:32:16.729Z,21.35
2018-05-11T11:34:45.298Z,21.49
2018-05-11T11:37:15.399Z,21.44
2018-05-11T11:39:43.731Z,21.59
2018-05-11T11:42:12.220Z,21.62
2018-05-11T11:44:40.464Z,21.71
2018-05-11T11:47:09.020Z,21.79
2018-05-11T11:49:37.368Z,21.80
2018-05-11T11:52:05.996Z,21.82
2018-05-11T11:54:34.296Z,21.78
2018-05-11T11:57:03.573Z,21.88
2018-05-11T11:59:31.888Z,22.03
2018-05-11T12:02:01.180Z,22.20
2018-05-11T12:04:30.315Z,22.29
2018-05-11T12:06:58.652Z,22.40
2018-05-11T12:09:28.855Z,22.48
2018-05-11T12:11:57.178Z,22.60
2018-05-11T12:14:25.519Z,22.65
2018-05-11T12:16:54.649Z,22.60
2018-05-11T12:19:23.016Z,22.65
2018-05-11T12:21:51.657Z,22.76
2018-05-11T12:24:19.963Z,22.85
2018-05-11T12:26:49.232Z,23.01
2018-05-11T12:29:17.543Z,23.28
2018-05-11T12:31:46.841Z,23.39
2018-05-11T12:34:16.162Z,23.50
2018-05-11T12:36:44.545Z,23.43
2018-05-11T12:39:13.137Z,23.51
2018-05-11T12:41:42.703Z,23.50
2018-05-11T12:44:11.120Z,23.68
2018-05-11T12:46:39.435Z,23.91
2018-05-11T12:49:07.848Z,23.84
2018-05-11T12:51:37.091Z,23.36
2018-05-11T12:54:05.414Z,23.16
2018-05-11T12:56:34.641Z,22.80
2018-05-11T12:59:03.101Z,22.55
2018-05-11T13:01:31.509Z,22.48
2018-05-11T13:03:59.891Z,22.41
2018-05-11T13:06:28.278Z,22.50
2018-05-11T13:08:56.659Z,22.46
2018-05-11T13:11:26.037Z,22.56
2018-05-11T13:13:54.607Z,22.87
2018-05-11T13:16:23.748Z,23.22
2018-05-11T13:18:52.145Z,23.50
2018-05-11T13:21:20.528Z,23.56
2018-05-11T13:23:48.898Z,23.42
2018-05-11T13:26:17.326Z,23.35
2018-05-11T13:28:45.699Z,23.55
2018-05-11T13:31:14.794Z,23.52
2018-05-11T13:33:44.001Z,23.32
2018-05-11T13:36:12.352Z,23.15
2018-05-11T13:38:40.928Z,22.86
2018-05-11T13:41:09.243Z,22.68
2018-05-11T13:43:39.437Z,22.60
2018-05-11T13:46:09.690Z,22.59
2018-05-11T13:48:38.002Z,22.66
2018-05-11T13:51:06.401Z,22.64
2018-05-11T13:53:34.811Z,22.73
2018-05-11T13:56:04.264Z,23.07
2018-05-11T13:58:32.753Z,23.36
2018-05-11T14:01:01.166Z,23.65
2018-05-11T14:03:30.392Z,24.02
2018-05-11T14:05:58.679Z,24.45
2018-05-11T14:08:27.065Z,24.67
2018-05-11T14:10:55.462Z,24.81
2018-05-11T14:13:23.890Z,25.05
2018-05-11T14:15:53.111Z,25.52
2018-05-11T14:18:21.659Z,25.81
2018-05-11T14:20:50.918Z,25.66
2018-05-11T14:23:19.319Z,25.40
2018-05-11T14:25:47.652Z,24.91
2018-05-11T14:28:15.953Z,24.42
2018-05-11T14:30:44.403Z,24.21
2018-05-11T14:33:13.135Z,24.08
2018-05-11T14:35:41.462Z,24.02
2018-05-11T14:38:09.813Z,23.93
2018-05-11T14:40:38.994Z,23.86
2018-05-11T14:43:08.234Z,23.81
2018-05-11T14:45:36.636Z,23.80
2018-05-11T14:48:05.258Z,23.76
2018-05-11T14:50:34.378Z,23.87
2018-05-11T14:53:03.745Z,24.05
2018-05-11T14:55:32.157Z,24.38
2018-05-11T14:58:01.293Z,24.98
2018-05-11T15:00:29.696Z,25.54
2018-05-11T15:02:58.033Z,25.93
2018-05-11T15:05:26.399Z,26.36
2018-05-11T15:07:54.729Z,26.49
2018-05-11T15:10:23.065Z,26.82
2018-05-11T15:12:51.459Z,27.11
2018-05-11T15:15:19.789Z,27.29
2018-05-11T15:17:50.222Z,27.31
2018-05-11T15:20:19.417Z,27.46
2018-05-11T15:22:48.608Z,27.19
2018-05-11T15:25:17.933Z,26.85
2018-05-11T15:27:46.322Z,26.82
2018-05-11T15:30:14.992Z,26.77
2018-05-11T15:32:43.348Z,26.91
2018-05-11T15:35:11.953Z,27.11
2018-05-11T15:37:41.052Z,27.08
2018-05-11T15:40:09.449Z,27.44
2018-05-11T15:42:37.789Z,28.18
2018-05-11T15:45:06.145Z,29.28
2018-05-11T15:47:34.493Z,29.46
2018-05-11T15:50:03.707Z,29.51
2018-05-11T15:52:32.219Z,28.96
2018-05-11T15:55:00.710Z,28.63
2018-05-11T15:57:29.237Z,27.55
2018-05-11T15:59:57.588Z,27.13
2018-05-11T16:02:25.978Z,26.49
2018-05-11T16:04:54.373Z,26.28
2018-05-11T16:07:23.095Z,25.78
2018-05-11T16:09:51.574Z,25.69
2018-05-11T16:12:19.939Z,26.70
2018-05-11T16:14:48.577Z,28.15
2018-05-11T16:17:17.233Z,29.18
2018-05-11T16:19:45.614Z,29.16
2018-05-11T16:22:14.019Z,30.44
2018-05-11T16:24:42.453Z,31.97
2018-05-11T16:27:11.072Z,33.14
2018-05-11T16:29:39.426Z,33.14
2018-05-11T16:32:07.778Z,33.21
2018-05-11T16:34:36.220Z,33.48
2018-05-11T16:37:04.554Z,32.72
2018-05-11T16:39:32.921Z,32.66
2018-05-11T16:42:01.430Z,32.76
2018-05-11T16:44:30.665Z,33.24
2018-05-11T16:46:59.009Z,33.39
2018-05-11T16:49:27.409Z,33.47
2018-05-11T16:51:56.538Z,32.69
2018-05-11T16:54:24.910Z,32.68
2018-05-11T16:56:53.260Z,32.82
2018-05-11T16:59:21.762Z,32.99
2018-05-11T17:01:50.188Z,33.34
2018-05-11T17:04:18.572Z,33.56
2018-05-11T17:06:47.119Z,33.72
2018-05-11T17:09:15.602Z,33.24
2018-05-11T17:11:44.214Z,32.96
2018-05-11T17:14:12.523Z,33.26
2018-05-11T17:16:41.878Z,33.15
2018-05-11T17:19:10.238Z,33.14
2018-05-11T17:21:38.650Z,32.25
2018-05-11T17:24:07.017Z,31.65
2018-05-11T17:26:35.410Z,31.27
2018-05-11T17:29:04.581Z,30.24
2018-05-11T17:31:32.976Z,29.00
2018-05-11T17:34:01.498Z,27.83
2018-05-11T17:36:29.913Z,27.01
2018-05-11T17:38:59.123Z,26.29
2018-05-11T17:41:28.415Z,25.73
2018-05-11T17:43:57.024Z,25.30
2018-05-11T17:46:26.422Z,24.91
2018-05-11T17:48:55.640Z,24.62
2018-05-11T17:51:23.991Z,24.41
2018-05-11T17:53:52.453Z,24.16
2018-05-11T17:56:20.805Z,23.97
2018-05-11T17:58:49.603Z,23.94
2018-05-11T18:01:17.939Z,23.71
2018-05-11T18:03:47.060Z,23.55
2018-05-11T18:06:15.504Z,23.49
2018-05-11T18:08:43.853Z,23.47
2018-05-11T18:11:12.532Z,23.39
2018-05-11T18:13:40.993Z,23.40
2018-05-11T18:16:09.569Z,23.33
2018-05-11T18:18:38.160Z,23.25
2018-05-11T18:21:06.524Z,23.23
2018-05-11T18:23:35.204Z,23.21
2018-05-11T18:26:03.617Z,23.15
2018-05-11T18:28:32.140Z,23.25
2018-05-11T18:31:01.427Z,23.27
2018-05-11T18:33:29.890Z,23.32
2018-05-11T18:35:58.276Z,23.37
2018-05-11T18:38:27.465Z,23.45
2018-05-11T18:40:55.905Z,23.54
2018-05-11T18:43:24.460Z,23.38
2018-05-11T18:45:53.949Z,23.30
2018-05-11T18:48:23.909Z,23.21
2018-05-11T18:50:52.440Z,23.06
2018-05-11T18:53:21.955Z,22.96
2018-05-11T18:55:50.280Z,23.03
2018-05-11T18:58:18.675Z,23.06
2018-05-11T19:00:47.339Z,22.97
2018-05-11T19:03:17.614Z,22.88
2018-05-11T19:05:48.249Z,22.95
2018-05-11T19:08:16.796Z,22.92
2018-05-11T19:10:45.315Z,22.93
2018-05-11T19:13:14.652Z,22.93
2018-05-11T19:15:43.028Z,22.88
2018-05-11T19:18:12.679Z,22.79
2018-05-11T19:20:41.264Z,22.76
2018-05-11T19:23:09.614Z,22.84
2018-05-11T19:25:37.977Z,22.98
2018-05-11T19:28:06.362Z,22.92
2018-05-11T19:30:35.044Z,22.94
2018-05-11T19:33:03.522Z,22.86
2018-05-11T19:35:32.020Z,22.82
2018-05-11T19:38:02.145Z,22.83
2018-05-11T19:40:30.583Z,22.72
2018-05-11T19:42:59.231Z,22.78
2018-05-11T19:45:27.685Z,22.81
2018-05-11T19:47:56.158Z,22.87
2018-05-11T19:50:24.506Z,22.82
2018-05-11T19:52:52.884Z,22.63
2018-05-11T19:55:21.493Z,22.48
2018-05-11T19:57:49.933Z,22.45
2018-05-11T20:00:18.335Z,22.46
2018-05-11T20:02:46.923Z,22.49
2018-05-11T20:05:15.725Z,22.53
2018-05-11T20:07:44.209Z,22.47
2018-05-11T20:10:12.685Z,22.46
2018-05-11T20:12:41.104Z,22.49
2018-05-11T20:15:09.625Z,22.39
2018-05-11T20:17:38.105Z,22.28
2018-05-11T20:20:07.271Z,22.13
2018-05-11T20:22:35.791Z,21.82
2018-05-11T20:25:04.274Z,21.62
2018-05-11T20:27:32.630Z,21.45
2018-05-11T20:30:01.753Z,21.29
2018-05-11T20:32:30.172Z,21.14
2018-05-11T20:34:58.448Z,21.04
2018-05-11T20:37:26.875Z,20.88
2018-05-11T20:39:55.301Z,20.72
2018-05-11T20:42:23.691Z,20.66
2018-05-11T20:44:53.595Z,20.63
2018-05-11T20:47:21.939Z,20.59
2018-05-11T20:49:50.366Z,20.64
2018-05-11T20:52:18.749Z,20.59
2018-05-11T20:54:47.482Z,20.51
2018-05-11T20:57:15.873Z,20.49
2018-05-11T20:59:44.444Z,20.42
2018-05-11T21:02:12.893Z,20.42
2018-05-11T21:04:41.330Z,20.42
2018-05-11T21:07:09.706Z,20.38
2018-05-11T21:09:38.311Z,20.33
2018-05-11T21:12:06.828Z,20.32
2018-05-11T21:14:35.169Z,20.29
2018-05-11T21:17:04.265Z,20.32
2018-05-11T21:19:32.716Z,20.36
2018-05-11T21:22:01.084Z,20.37
2018-05-11T21:24:30.396Z,20.33
2018-05-11T21:26:58.795Z,20.29
2018-05-11T21:29:27.221Z,20.22
2018-05-11T21:31:55.764Z,20.17
2018-05-11T21:34:24.621Z,20.14
2018-05-11T21:36:53.102Z,20.14
2018-05-11T21:39:21.585Z,20.09
2018-05-11T21:41:49.955Z,20.00
2018-05-11T21:44:18.430Z,19.88
2018-05-11T21:46:46.832Z,19.88
2018-05-11T21:49:15.508Z,19.86
2018-05-11T21:51:43.922Z,19.80
2018-05-11T21:54:12.239Z,19.81
2018-05-11T21:56:40.566Z,19.77
2018-05-11T21:59:08.930Z,19.76
2018-05-11T22:01:37.286Z,19.79
2018-05-11T22:04:05.946Z,19.78
2018-05-11T22:06:35.110Z,19.74
2018-05-11T22:09:03.475Z,19.73
2018-05-11T22:11:31.809Z,19.61
2018-05-11T22:14:00.158Z,19.63
2018-05-11T22:16:28.619Z,19.70
2018-05-11T22:18:56.918Z,19.73
2018-05-11T22:21:26.296Z,19.74
2018-05-11T22:23:54.653Z,19.70
2018-05-11T22:26:23.020Z,19.73
2018-05-11T22:28:51.383Z,19.70
2018-05-11T22:31:19.689Z,19.69
2018-05-11T22:33:48.261Z,19.68
2018-05-11T22:36:16.594Z,19.70
2018-05-11T22:38:45.713Z,19.66
2018-05-11T22:41:14.068Z,19.69
2018-05-11T22:43:43.494Z,19.71
2018-05-11T22:46:11.956Z,19.69
2018-05-11T22:48:41.106Z,19.71
2018-05-11T22:51:09.440Z,19.74
2018-05-11T22:53:38.599Z,19.65
2018-05-11T22:56:07.618Z,19.63
2018-05-11T22:58:36.114Z,19.46
2018-05-11T23:01:05.476Z,19.16
2018-05-11T23:03:33.900Z,19.11
2018-05-11T23:06:02.171Z,19.07
2018-05-11T23:08:31.361Z,19.14
2018-05-11T23:10:59.923Z,19.25
2018-05-11T23:13:28.301Z,19.33
2018-05-11T23:15:57.457Z,19.43
2018-05-11T23:18:25.835Z,19.48
2018-05-11T23:20:54.136Z,19.48
2018-05-11T23:23:22.495Z,19.49
2018-05-11T23:25:50.833Z,19.51
2018-05-11T23:28:21.030Z,19.53
2018-05-11T23:30:49.355Z,19.50
2018-05-11T23:33:17.744Z,19.53
2018-05-11T23:35:46.201Z,19.57
2018-05-11T23:38:14.638Z,19.58
2018-05-11T23:40:43.015Z,19.55
2018-05-11T23:43:11.448Z,19.55
2018-05-11T23:45:39.746Z,19.53
2018-05-11T23:48:08.098Z,19.51
2018-05-11T23:50:36.441Z,19.50
2018-05-11T23:53:04.769Z,19.50
2018-05-11T23:55:33.115Z,19.48
2018-05-11T23:58:03.336Z,19.50
